East Templeton, Massachusetts
Current Conditions -  °F | °C
As of 2:52 AM on Friday 24 Oct 2014 (Local Time) from KORE Reporting Station
Overcast Overcast  
Wind Chill: 43°   Ceiling: 1200
Heat Index: 48°   Visibility: 10mi
Dew Point: 45°   Wind: 13mph
Humidity: 89%   Direction: 330°NNW
Pressure: 29.72"   Gusts: NA
Location:  42.56°N, 72.04°W
Report Text: KORE 240652Z AUTO 33011KT 10SM OVC012 09/07 A2972 RMK AO2 SLP067 T00890072
Loading
Personal Weather Stations






























Interactive Weather Map
Tropical Storm Tracking
New forecast layout! Learn more

10-Day Weather Forecast

Advertisements
Track Severe Weather on mobile